Wetterdaten: Mittwoch, 14.04.2021
Datum Zeit Temp. A. Temp. A. min Temp. A. max Feuchte A. Bod.Feucht 4 Luftdruck Regen Wind Richtung Richtung Sonnenschein ET Solar Taupunkt Windchill Windben Empfang
14.04.2021 00:00 0,7 C 0,7 C 0,8 C 75 % 0 cb 1031,9 hPa 0,0 l/m 1,6 km/h (1 Bft) N 360 0 min 0,025 mm 0 W/m -3,2 C 0,7 C 4,8 km/h (1 Bft) 100,00 %
14.04.2021 00:10 0,7 C 0,7 C 0,8 C 74 % 0 cb 1031,8 hPa 0,0 l/m 0,0 km/h (0 Bft) N 360 0 min 0,000 mm 0 W/m -3,4 C 0,7 C 4,8 km/h (1 Bft) 100,00 %
14.04.2021 00:20 0,5 C 0,5 C 0,7 C 74 % 0 cb 1031,7 hPa 0,0 l/m 0,0 km/h (0 Bft) N 360 0 min 0,000 mm 0 W/m -3,6 C 0,5 C 3,2 km/h (1 Bft) 100,00 %
14.04.2021 00:30 0,2 C 0,2 C 0,5 C 74 % 0 cb 1031,6 hPa 0,0 l/m 0,0 km/h (0 Bft) N 360 0 min 0,000 mm 0 W/m -3,9 C 0,2 C 1,6 km/h (1 Bft) 100,00 %
14.04.2021 00:40 -0,3 C -0,3 C 0,1 C 76 % 0 cb 1031,5 hPa 0,0 l/m 0,0 km/h (0 Bft) N 360 0 min 0,000 mm 0 W/m -4,0 C -0,3 C 1,6 km/h (1 Bft) 100,00 %
14.04.2021 00:50 -0,6 C -0,7 C -0,3 C 77 % 0 cb 1031,4 hPa 0,0 l/m 0,0 km/h (0 Bft) N 360 0 min 0,000 mm 0 W/m -4,1 C -0,6 C 1,6 km/h (1 Bft) 100,00 %
14.04.2021 01:00 -0,9 C -0,9 C -0,7 C 78 % 0 cb 1031,4 hPa 0,0 l/m 0,0 km/h (0 Bft) N 0 0 min 0,000 mm 0 W/m -4,2 C -0,9 C 0,0 km/h (0 Bft) 100,00 %
14.04.2021 01:10 -1,3 C -1,3 C -0,9 C 79 % 0 cb 1031,4 hPa 0,0 l/m 0,0 km/h (0 Bft) N 0 0 min 0,000 mm 0 W/m -4,5 C -1,3 C 0,0 km/h (0 Bft) 100,00 %
14.04.2021 01:20 -1,4 C -1,4 C -1,3 C 82 % 0 cb 1031,3 hPa 0,0 l/m 0,0 km/h (0 Bft) N 360 0 min 0,000 mm 0 W/m -4,1 C -1,4 C 3,2 km/h (1 Bft) 100,00 %
14.04.2021 01:30 -1,2 C -1,4 C -1,2 C 82 % 0 cb 1031,3 hPa 0,0 l/m 1,6 km/h (1 Bft) N 360 0 min 0,000 mm 0 W/m -3,9 C -1,2 C 4,8 km/h (1 Bft) 100,00 %
14.04.2021 01:40 -1,1 C -1,2 C -1,1 C 81 % 0 cb 1031,2 hPa 0,0 l/m 1,6 km/h (1 Bft) N 360 0 min 0,000 mm 0 W/m -3,9 C -1,1 C 4,8 km/h (1 Bft) 100,00 %
14.04.2021 01:50 -1,0 C -1,1 C -1,0 C 81 % 0 cb 1031,1 hPa 0,0 l/m 1,6 km/h (1 Bft) N 360 0 min 0,000 mm 0 W/m -3,8 C -1,0 C 6,4 km/h (2 Bft) 100,00 %
14.04.2021 02:00 -0,8 C -1,0 C -0,7 C 80 % 0 cb 1031,1 hPa 0,0 l/m 1,6 km/h (1 Bft) N 360 0 min 0,000 mm 0 W/m -3,8 C -0,8 C 6,4 km/h (2 Bft) 100,00 %
14.04.2021 02:10 -0,5 C -0,7 C -0,5 C 79 % 0 cb 1031,0 hPa 0,0 l/m 1,6 km/h (1 Bft) N 360 0 min 0,000 mm 0 W/m -3,7 C -0,5 C 6,4 km/h (2 Bft) 100,00 %
14.04.2021 02:20 -0,3 C -0,5 C -0,3 C 78 % 0 cb 1031,0 hPa 0,0 l/m 1,6 km/h (1 Bft) N 360 0 min 0,000 mm 0 W/m -3,7 C -0,3 C 4,8 km/h (1 Bft) 100,00 %
14.04.2021 02:30 -0,2 C -0,3 C -0,2 C 77 % 0 cb 1030,9 hPa 0,0 l/m 1,6 km/h (1 Bft) N 360 0 min 0,000 mm 0 W/m -3,7 C -0,2 C 6,4 km/h (2 Bft) 100,00 %
14.04.2021 02:40 -0,2 C -0,2 C -0,2 C 77 % 0 cb 1031,0 hPa 0,0 l/m 1,6 km/h (1 Bft) N 360 0 min 0,000 mm 0 W/m -3,7 C -0,2 C 8,0 km/h (2 Bft) 100,00 %
14.04.2021 02:50 -0,2 C -0,2 C -0,2 C 77 % 0 cb 1030,9 hPa 0,0 l/m 1,6 km/h (1 Bft) N 360 0 min 0,000 mm 0 W/m -3,7 C -0,2 C 8,0 km/h (2 Bft) 100,00 %
14.04.2021 03:00 -0,1 C -0,2 C -0,1 C 77 % 0 cb 1030,8 hPa 0,0 l/m 3,2 km/h (1 Bft) N 360 0 min 0,000 mm 0 W/m -3,6 C -0,1 C 8,0 km/h (2 Bft) 100,00 %
14.04.2021 03:10 0,1 C -0,1 C 0,1 C 77 % 0 cb 1030,7 hPa 0,0 l/m 3,2 km/h (1 Bft) N 360 0 min 0,000 mm 0 W/m -3,4 C 0,1 C 8,0 km/h (2 Bft) 100,00 %
14.04.2021 03:20 0,0 C 0,0 C 0,1 C 77 % 0 cb 1030,7 hPa 0,0 l/m 3,2 km/h (1 Bft) N 360 0 min 0,000 mm 0 W/m -3,5 C 0,0 C 8,0 km/h (2 Bft) 99,56 %
14.04.2021 03:30 0,0 C -0,1 C 0,1 C 77 % 0 cb 1030,7 hPa 0,0 l/m 3,2 km/h (1 Bft) N 360 0 min 0,000 mm 0 W/m -3,5 C 0,0 C 8,0 km/h (2 Bft) 99,56 %
14.04.2021 03:40 0,0 C -0,1 C 0,0 C 77 % 0 cb 1030,6 hPa 0,0 l/m 3,2 km/h (1 Bft) N 360 0 min 0,000 mm 0 W/m -3,5 C 0,0 C 9,7 km/h (2 Bft) 100,00 %
14.04.2021 03:50 0,1 C 0,1 C 0,1 C 77 % 0 cb 1030,6 hPa 0,0 l/m 3,2 km/h (1 Bft) N 360 0 min 0,000 mm 0 W/m -3,4 C 0,1 C 8,0 km/h (2 Bft) 100,00 %
14.04.2021 04:00 0,1 C 0,1 C 0,1 C 77 % 0 cb 1030,5 hPa 0,0 l/m 3,2 km/h (1 Bft) N 360 0 min 0,025 mm 0 W/m -3,4 C 0,1 C 8,0 km/h (2 Bft) 100,00 %
14.04.2021 04:10 0,1 C 0,1 C 0,1 C 77 % 0 cb 1030,5 hPa 0,0 l/m 3,2 km/h (1 Bft) N 360 0 min 0,000 mm 0 W/m -3,4 C 0,1 C 8,0 km/h (2 Bft) 100,00 %
14.04.2021 04:20 0,0 C 0,0 C 0,1 C 77 % 0 cb 1030,4 hPa 0,0 l/m 3,2 km/h (1 Bft) N 360 0 min 0,000 mm 0 W/m -3,5 C 0,0 C 9,7 km/h (2 Bft) 100,00 %
14.04.2021 04:30 0,0 C -0,1 C 0,0 C 77 % 0 cb 1030,4 hPa 0,0 l/m 3,2 km/h (1 Bft) N 360 0 min 0,000 mm 0 W/m -3,5 C 0,0 C 11,3 km/h (2 Bft) 100,00 %
14.04.2021 04:40 0,0 C -0,1 C 0,0 C 77 % 0 cb 1030,4 hPa 0,0 l/m 3,2 km/h (1 Bft) N 360 0 min 0,000 mm 0 W/m -3,5 C 0,0 C 9,7 km/h (2 Bft) 100,00 %
14.04.2021 04:50 0,0 C -0,1 C 0,0 C 77 % 0 cb 1030,3 hPa 0,0 l/m 3,2 km/h (1 Bft) N 360 0 min 0,000 mm 0 W/m -3,5 C 0,0 C 9,7 km/h (2 Bft) 93,86 %
14.04.2021 05:00 -0,1 C -0,1 C 0,0 C 77 % 0 cb 1030,3 hPa 0,0 l/m 3,2 km/h (1 Bft) N 360 0 min 0,025 mm 0 W/m -3,6 C -0,1 C 8,0 km/h (2 Bft) 100,00 %
14.04.2021 05:10 -0,1 C -0,1 C -0,1 C 77 % 0 cb 1030,3 hPa 0,0 l/m 3,2 km/h (1 Bft) N 360 0 min 0,000 mm 0 W/m -3,6 C -0,1 C 8,0 km/h (2 Bft) 100,00 %
14.04.2021 05:20 -0,2 C -0,2 C -0,1 C 78 % 0 cb 1030,2 hPa 0,0 l/m 3,2 km/h (1 Bft) N 360 0 min 0,000 mm 0 W/m -3,6 C -0,2 C 8,0 km/h (2 Bft) 100,00 %
14.04.2021 05:30 -0,3 C -0,3 C -0,2 C 78 % 0 cb 1030,2 hPa 0,0 l/m 3,2 km/h (1 Bft) N 360 0 min 0,000 mm 0 W/m -3,7 C -0,3 C 9,7 km/h (2 Bft) 100,00 %
14.04.2021 05:40 -0,3 C -0,3 C -0,3 C 79 % 0 cb 1030,1 hPa 0,0 l/m 3,2 km/h (1 Bft) N 360 0 min 0,000 mm 0 W/m -3,5 C -0,3 C 9,7 km/h (2 Bft) 100,00 %
14.04.2021 05:50 -0,3 C -0,3 C -0,3 C 79 % 0 cb 1030,2 hPa 0,0 l/m 3,2 km/h (1 Bft) N 360 0 min 0,000 mm 0 W/m -3,5 C -0,3 C 8,0 km/h (2 Bft) 99,56 %
14.04.2021 06:00 -0,4 C -0,4 C -0,3 C 79 % 0 cb 1030,2 hPa 0,0 l/m 3,2 km/h (1 Bft) N 360 0 min 0,025 mm 0 W/m -3,6 C -0,4 C 9,7 km/h (2 Bft) 99,56 %
14.04.2021 06:10 -0,4 C -0,4 C -0,3 C 79 % 0 cb 1030,2 hPa 0,0 l/m 3,2 km/h (1 Bft) N 360 0 min 0,000 mm 0 W/m -3,6 C -0,4 C 9,7 km/h (2 Bft) 100,00 %
14.04.2021 06:20 -0,4 C -0,4 C -0,4 C 79 % 0 cb 1030,1 hPa 0,0 l/m 3,2 km/h (1 Bft) N 360 0 min 0,000 mm 0 W/m -3,6 C -0,4 C 8,0 km/h (2 Bft) 100,00 %
14.04.2021 06:30 -0,4 C -0,5 C -0,4 C 80 % 0 cb 1030,2 hPa 0,0 l/m 3,2 km/h (1 Bft) N 360 0 min 0,000 mm 0 W/m -3,4 C -0,4 C 9,7 km/h (2 Bft) 100,00 %
14.04.2021 06:40 -0,6 C -0,6 C -0,4 C 80 % 0 cb 1030,1 hPa 0,0 l/m 3,2 km/h (1 Bft) N 360 0 min 0,000 mm 0 W/m -3,6 C -0,6 C 8,0 km/h (2 Bft) 100,00 %
14.04.2021 06:50 -0,7 C -0,7 C -0,6 C 80 % 0 cb 1030,2 hPa 0,0 l/m 1,6 km/h (1 Bft) N 360 0 min 0,000 mm 7 W/m -3,7 C -0,7 C 6,4 km/h (2 Bft) 100,00 %
14.04.2021 07:00 -0,8 C -0,8 C -0,7 C 81 % 0 cb 1030,2 hPa 0,0 l/m 1,6 km/h (1 Bft) N 360 0 min 0,000 mm 14 W/m -3,6 C -0,8 C 4,8 km/h (1 Bft) 100,00 %
14.04.2021 07:10 -0,7 C -0,8 C -0,7 C 81 % 0 cb 1030,3 hPa 0,0 l/m 3,2 km/h (1 Bft) N 360 0 min 0,000 mm 25 W/m -3,5 C -0,7 C 8,0 km/h (2 Bft) 100,00 %
14.04.2021 07:20 -0,6 C -0,7 C -0,6 C 81 % 0 cb 1030,4 hPa 0,0 l/m 1,6 km/h (1 Bft) N 360 0 min 0,000 mm 32 W/m -3,4 C -0,6 C 6,4 km/h (2 Bft) 100,00 %
14.04.2021 07:30 -0,5 C -0,6 C -0,5 C 82 % 0 cb 1030,6 hPa 0,0 l/m 1,6 km/h (1 Bft) N 360 0 min 0,000 mm 39 W/m -3,2 C -0,5 C 6,4 km/h (2 Bft) 100,00 %
14.04.2021 07:40 -0,2 C -0,5 C -0,2 C 82 % 0 cb 1030,6 hPa 0,0 l/m 3,2 km/h (1 Bft) N 360 0 min 0,000 mm 42 W/m -2,9 C -0,2 C 9,7 km/h (2 Bft) 100,00 %
14.04.2021 07:50 0,0 C -0,2 C 0,0 C 81 % 0 cb 1030,7 hPa 0,0 l/m 3,2 km/h (1 Bft) N 360 0 min 0,000 mm 53 W/m -2,9 C 0,0 C 8,0 km/h (2 Bft) 100,00 %
14.04.2021 08:00 0,3 C 0,1 C 0,3 C 81 % 0 cb 1030,7 hPa 0,0 l/m 4,8 km/h (1 Bft) N 360 0 min 0,025 mm 58 W/m -2,6 C -1,2 C 9,7 km/h (2 Bft) 100,00 %
14.04.2021 08:10 0,7 C 0,3 C 0,7 C 80 % 0 cb 1030,8 hPa 0,0 l/m 4,8 km/h (1 Bft) N 360 0 min 0,000 mm 58 W/m -2,3 C -0,7 C 12,9 km/h (3 Bft) 100,00 %
14.04.2021 08:20 1,1 C 0,7 C 1,1 C 79 % 0 cb 1030,8 hPa 0,0 l/m 4,8 km/h (1 Bft) N 360 10 min 0,000 mm 199 W/m -2,1 C -0,2 C 12,9 km/h (3 Bft) 100,00 %
14.04.2021 08:30 1,6 C 1,1 C 1,6 C 78 % 0 cb 1030,9 hPa 0,0 l/m 4,8 km/h (1 Bft) N 360 10 min 0,000 mm 218 W/m -1,8 C 0,3 C 11,3 km/h (2 Bft) 100,00 %
14.04.2021 08:40 1,9 C 1,6 C 1,9 C 77 % 0 cb 1030,9 hPa 0,0 l/m 4,8 km/h (1 Bft) N 360 10 min 0,000 mm 292 W/m -1,7 C 0,7 C 16,1 km/h (3 Bft) 100,00 %
14.04.2021 08:50 2,5 C 1,9 C 2,5 C 76 % 0 cb 1030,9 hPa 0,0 l/m 6,4 km/h (2 Bft) N-NW 337 10 min 0,000 mm 350 W/m -1,3 C 0,7 C 16,1 km/h (3 Bft) 100,00 %
14.04.2021 09:00 3,2 C 2,5 C 3,2 C 75 % 0 cb 1030,9 hPa 0,0 l/m 4,8 km/h (1 Bft) N 360 10 min 0,076 mm 411 W/m -0,8 C 2,1 C 14,5 km/h (3 Bft) 100,00 %
14.04.2021 09:10 3,6 C 3,2 C 3,6 C 72 % 0 cb 1031,0 hPa 0,0 l/m 6,4 km/h (2 Bft) N 360 10 min 0,000 mm 439 W/m -1,0 C 2,0 C 14,5 km/h (3 Bft) 100,00 %
14.04.2021 09:20 3,2 C 3,2 C 3,6 C 72 % 0 cb 1031,0 hPa 0,0 l/m 6,4 km/h (2 Bft) N-NO 22 10 min 0,000 mm 292 W/m -1,3 C 1,5 C 14,5 km/h (3 Bft) 100,00 %
14.04.2021 09:30 3,1 C 3,1 C 3,2 C 73 % 0 cb 1031,0 hPa 0,0 l/m 4,8 km/h (1 Bft) NO 45 10 min 0,000 mm 188 W/m -1,3 C 2,0 C 16,1 km/h (3 Bft) 100,00 %
14.04.2021 09:40 3,0 C 2,9 C 3,1 C 74 % 0 cb 1031,0 hPa 0,0 l/m 3,2 km/h (1 Bft) NO 45 10 min 0,000 mm 179 W/m -1,2 C 3,0 C 14,5 km/h (3 Bft) 100,00 %
14.04.2021 09:50 3,1 C 2,9 C 3,1 C 73 % 0 cb 1031,0 hPa 0,0 l/m 4,8 km/h (1 Bft) N-NO 22 10 min 0,000 mm 285 W/m -1,3 C 2,0 C 11,3 km/h (2 Bft) 100,00 %
14.04.2021 10:00 3,3 C 3,1 C 3,3 C 73 % 0 cb 1030,9 hPa 0,0 l/m 3,2 km/h (1 Bft) N-NO 22 10 min 0,102 mm 283 W/m -1,1 C 3,3 C 14,5 km/h (3 Bft) 100,00 %
14.04.2021 10:10 3,6 C 3,3 C 3,6 C 72 % 0 cb 1030,9 hPa 0,0 l/m 3,2 km/h (1 Bft) N 360 10 min 0,000 mm 272 W/m -1,0 C 3,6 C 12,9 km/h (3 Bft) 100,00 %
14.04.2021 10:20 3,8 C 3,6 C 3,8 C 71 % 0 cb 1030,8 hPa 0,0 l/m 3,2 km/h (1 Bft) N 360 10 min 0,000 mm 323 W/m -1,0 C 3,8 C 11,3 km/h (2 Bft) 100,00 %
14.04.2021 10:30 4,2 C 3,8 C 4,2 C 69 % 0 cb 1030,8 hPa 0,0 l/m 4,8 km/h (1 Bft) NO 45 10 min 0,000 mm 603 W/m -1,0 C 3,3 C 16,1 km/h (3 Bft) 100,00 %
14.04.2021 10:40 5,1 C 4,2 C 5,1 C 67 % 0 cb 1030,7 hPa 0,0 l/m 4,8 km/h (1 Bft) N-NO 22 10 min 0,000 mm 621 W/m -0,5 C 4,3 C 14,5 km/h (3 Bft) 99,12 %
14.04.2021 10:50 5,7 C 5,1 C 5,7 C 64 % 0 cb 1030,6 hPa 0,0 l/m 6,4 km/h (2 Bft) O 90 10 min 0,000 mm 592 W/m -0,6 C 4,4 C 16,1 km/h (3 Bft) 100,00 %
14.04.2021 11:00 5,9 C 5,7 C 5,9 C 56 % 0 cb 1030,6 hPa 0,0 l/m 6,4 km/h (2 Bft) O-NO 67 10 min 0,152 mm 693 W/m -2,2 C 4,6 C 14,5 km/h (3 Bft) 100,00 %
14.04.2021 11:10 5,9 C 5,7 C 5,9 C 60 % 0 cb 1030,5 hPa 0,0 l/m 4,8 km/h (1 Bft) O-NO 67 10 min 0,000 mm 854 W/m -1,3 C 5,2 C 14,5 km/h (3 Bft) 100,00 %
14.04.2021 11:20 6,3 C 5,9 C 6,3 C 54 % 0 cb 1030,4 hPa 0,0 l/m 4,8 km/h (1 Bft) O 90 10 min 0,000 mm 847 W/m -2,3 C 5,6 C 14,5 km/h (3 Bft) 99,56 %
14.04.2021 11:30 5,8 C 5,8 C 6,3 C 57 % 0 cb 1030,4 hPa 0,0 l/m 4,8 km/h (1 Bft) NO 45 10 min 0,000 mm 294 W/m -2,0 C 5,1 C 12,9 km/h (3 Bft) 100,00 %
14.04.2021 11:40 5,4 C 5,4 C 5,8 C 59 % 0 cb 1030,4 hPa 0,0 l/m 6,4 km/h (2 Bft) NO 45 10 min 0,000 mm 260 W/m -2,0 C 4,1 C 17,7 km/h (3 Bft) 100,00 %
14.04.2021 11:50 5,9 C 5,4 C 5,9 C 60 % 0 cb 1030,3 hPa 0,0 l/m 6,4 km/h (2 Bft) O-NO 67 10 min 0,000 mm 758 W/m -1,3 C 4,6 C 22,5 km/h (4 Bft) 100,00 %
14.04.2021 12:00 6,7 C 5,9 C 6,7 C 56 % 0 cb 1030,2 hPa 0,0 l/m 8,0 km/h (2 Bft) O-NO 67 10 min 0,203 mm 802 W/m -1,4 C 5,1 C 17,7 km/h (3 Bft) 100,00 %
14.04.2021 12:10 7,3 C 6,7 C 7,3 C 54 % 0 cb 1030,1 hPa 0,0 l/m 3,2 km/h (1 Bft) N-NO 22 10 min 0,000 mm 861 W/m -1,4 C 7,3 C 12,9 km/h (3 Bft) 100,00 %
14.04.2021 12:20 7,8 C 7,3 C 7,8 C 51 % 0 cb 1029,9 hPa 0,0 l/m 6,4 km/h (2 Bft) O 90 10 min 0,000 mm 991 W/m -1,7 C 6,8 C 17,7 km/h (3 Bft) 99,56 %
14.04.2021 12:30 8,1 C 7,9 C 8,1 C 49 % 0 cb 1029,9 hPa 0,0 l/m 6,4 km/h (2 Bft) O 90 10 min 0,000 mm 795 W/m -2,0 C 7,2 C 16,1 km/h (3 Bft) 100,00 %
14.04.2021 12:40 7,4 C 7,4 C 8,1 C 49 % 0 cb 1029,8 hPa 0,0 l/m 4,8 km/h (1 Bft) O-NO 67 10 min 0,000 mm 279 W/m -2,6 C 6,9 C 16,1 km/h (3 Bft) 100,00 %
14.04.2021 12:50 6,9 C 6,9 C 7,3 C 51 % 0 cb 1029,8 hPa 0,0 l/m 6,4 km/h (2 Bft) NO 45 10 min 0,000 mm 889 W/m -2,5 C 5,8 C 16,1 km/h (3 Bft) 99,56 %
14.04.2021 13:00 7,4 C 6,9 C 7,4 C 52 % 0 cb 1029,7 hPa 0,0 l/m 8,0 km/h (2 Bft) O-NO 67 10 min 0,305 mm 886 W/m -1,8 C 6,0 C 17,7 km/h (3 Bft) 100,00 %
14.04.2021 13:10 7,8 C 7,4 C 7,8 C 52 % 0 cb 1029,5 hPa 0,0 l/m 8,0 km/h (2 Bft) O 90 10 min 0,000 mm 976 W/m -1,4 C 6,4 C 16,1 km/h (3 Bft) 100,00 %
14.04.2021 13:20 8,2 C 7,9 C 8,3 C 47 % 0 cb 1029,4 hPa 0,0 l/m 8,0 km/h (2 Bft) O-NO 67 10 min 0,000 mm 986 W/m -2,4 C 6,9 C 20,9 km/h (4 Bft) 100,00 %
14.04.2021 13:30 7,7 C 7,7 C 8,2 C 46 % 0 cb 1029,4 hPa 0,0 l/m 6,4 km/h (2 Bft) O-SO 112 10 min 0,000 mm 276 W/m -3,2 C 6,7 C 14,5 km/h (3 Bft) 100,00 %
14.04.2021 13:40 7,0 C 7,0 C 7,6 C 48 % 0 cb 1029,3 hPa 0,0 l/m 4,8 km/h (1 Bft) O 90 10 min 0,000 mm 197 W/m -3,2 C 6,4 C 17,7 km/h (3 Bft) 100,00 %
14.04.2021 13:50 6,3 C 6,3 C 7,0 C 50 % 0 cb 1029,3 hPa 0,0 l/m 6,4 km/h (2 Bft) N 360 10 min 0,000 mm 255 W/m -3,3 C 5,1 C 14,5 km/h (3 Bft) 100,00 %
14.04.2021 14:00 6,6 C 6,3 C 6,6 C 49 % 0 cb 1029,1 hPa 0,0 l/m 4,8 km/h (1 Bft) N 360 10 min 0,229 mm 844 W/m -3,3 C 6,0 C 17,7 km/h (3 Bft) 100,00 %
14.04.2021 14:10 7,7 C 6,7 C 7,7 C 47 % 0 cb 1028,9 hPa 0,0 l/m 6,4 km/h (2 Bft) O-NO 67 10 min 0,000 mm 823 W/m -2,9 C 6,7 C 19,3 km/h (3 Bft) 100,00 %
14.04.2021 14:20 8,4 C 7,7 C 8,4 C 46 % 0 cb 1028,8 hPa 0,0 l/m 6,4 km/h (2 Bft) O-NO 67 10 min 0,000 mm 947 W/m -2,5 C 7,5 C 16,1 km/h (3 Bft) 100,00 %
14.04.2021 14:30 8,4 C 8,4 C 8,7 C 42 % 0 cb 1029,0 hPa 0,0 l/m 6,4 km/h (2 Bft) N 360 10 min 0,000 mm 974 W/m -3,8 C 7,5 C 20,9 km/h (4 Bft) 100,00 %
14.04.2021 14:40 7,1 C 7,1 C 8,3 C 46 % 0 cb 1029,0 hPa 0,0 l/m 9,7 km/h (2 Bft) N-NW 337 10 min 0,000 mm 165 W/m -3,7 C 5,2 C 20,9 km/h (4 Bft) 100,00 %
14.04.2021 14:50 6,6 C 6,6 C 7,1 C 46 % 0 cb 1029,0 hPa 0,0 l/m 8,0 km/h (2 Bft) N-NW 337 10 min 0,000 mm 204 W/m -4,2 C 5,0 C 19,3 km/h (3 Bft) 100,00 %
14.04.2021 15:00 6,4 C 6,3 C 6,6 C 45 % 0 cb 1029,0 hPa 0,0 l/m 8,0 km/h (2 Bft) N 360 10 min 0,229 mm 239 W/m -4,6 C 4,8 C 17,7 km/h (3 Bft) 100,00 %
14.04.2021 15:10 6,6 C 6,3 C 6,6 C 44 % 0 cb 1028,9 hPa 0,0 l/m 4,8 km/h (1 Bft) N 360 10 min 0,000 mm 262 W/m -4,8 C 6,0 C 17,7 km/h (3 Bft) 100,00 %
14.04.2021 15:20 6,9 C 6,6 C 6,9 C 43 % 0 cb 1028,8 hPa 0,0 l/m 4,8 km/h (1 Bft) NW 315 10 min 0,000 mm 446 W/m -4,8 C 6,3 C 16,1 km/h (3 Bft) 100,00 %
14.04.2021 15:30 7,1 C 6,9 C 7,1 C 42 % 0 cb 1028,7 hPa 0,0 l/m 8,0 km/h (2 Bft) N-NW 337 10 min 0,000 mm 512 W/m -4,9 C 5,6 C 22,5 km/h (4 Bft) 100,00 %
14.04.2021 15:40 6,9 C 6,8 C 7,1 C 43 % 0 cb 1028,6 hPa 0,0 l/m 6,4 km/h (2 Bft) N-NW 337 10 min 0,000 mm 661 W/m -4,8 C 5,8 C 12,9 km/h (3 Bft) 100,00 %
14.04.2021 15:50 7,5 C 6,9 C 7,5 C 42 % 0 cb 1028,3 hPa 0,0 l/m 3,2 km/h (1 Bft) N 360 10 min 0,000 mm 784 W/m -4,6 C 7,5 C 12,9 km/h (3 Bft) 100,00 %
14.04.2021 16:00 8,7 C 7,5 C 8,7 C 39 % 0 cb 1028,3 hPa 0,0 l/m 4,8 km/h (1 Bft) NW 315 10 min 0,203 mm 784 W/m -4,5 C 8,3 C 14,5 km/h (3 Bft) 100,00 %
14.04.2021 16:10 8,4 C 8,4 C 8,8 C 36 % 0 cb 1028,3 hPa 0,0 l/m 8,0 km/h (2 Bft) N 360 10 min 0,000 mm 779 W/m -5,8 C 7,1 C 24,1 km/h (4 Bft) 100,00 %
14.04.2021 16:20 7,8 C 7,8 C 8,4 C 38 % 0 cb 1028,3 hPa 0,0 l/m 8,0 km/h (2 Bft) N-NO 22 10 min 0,000 mm 367 W/m -5,6 C 6,4 C 17,7 km/h (3 Bft) 100,00 %
14.04.2021 16:30 7,7 C 7,7 C 7,9 C 38 % 0 cb 1028,1 hPa 0,0 l/m 8,0 km/h (2 Bft) N-NW 337 10 min 0,000 mm 715 W/m -5,7 C 6,3 C 19,3 km/h (3 Bft) 100,00 %
14.04.2021 16:40 8,4 C 7,8 C 8,4 C 38 % 0 cb 1027,9 hPa 0,0 l/m 6,4 km/h (2 Bft) N-NW 337 10 min 0,000 mm 684 W/m -5,1 C 7,5 C 22,5 km/h (4 Bft) 100,00 %
14.04.2021 16:50 8,6 C 8,4 C 8,6 C 37 % 0 cb 1027,5 hPa 0,0 l/m 6,4 km/h (2 Bft) O-NO 67 10 min 0,000 mm 619 W/m -5,2 C 7,8 C 22,5 km/h (4 Bft) 100,00 %
14.04.2021 17:00 8,4 C 8,4 C 8,6 C 38 % 0 cb 1027,0 hPa 0,0 l/m 8,0 km/h (2 Bft) N-NW 337 10 min 0,254 mm 555 W/m -5,1 C 7,1 C 19,3 km/h (3 Bft) 100,00 %
14.04.2021 17:10 8,4 C 8,3 C 8,4 C 37 % 0 cb 1025,6 hPa 0,0 l/m 8,0 km/h (2 Bft) N-NW 337 10 min 0,000 mm 526 W/m -5,4 C 7,1 C 19,3 km/h (3 Bft) 100,00 %
14.04.2021 17:20 8,3 C 8,3 C 8,4 C 37 % 0 cb 1027,8 hPa 0,0 l/m 9,7 km/h (2 Bft) N-NW 337 10 min 0,000 mm 522 W/m -5,5 C 6,7 C 19,3 km/h (3 Bft) 100,00 %
14.04.2021 17:30 8,2 C 8,2 C 8,3 C 35 % 0 cb 1027,8 hPa 0,0 l/m 6,4 km/h (2 Bft) O-NO 67 0 min 0,000 mm 121 W/m -6,3 C 7,3 C 16,1 km/h (3 Bft) 100,00 %
14.04.2021 17:40 8,3 C 8,2 C 8,3 C 36 % 0 cb 1027,7 hPa 0,0 l/m 4,8 km/h (1 Bft) O-NO 67 10 min 0,000 mm 178 W/m -5,9 C 7,9 C 14,5 km/h (3 Bft) 100,00 %
14.04.2021 17:50 8,2 C 8,2 C 8,3 C 40 % 0 cb 1027,9 hPa 0,0 l/m 6,4 km/h (2 Bft) O-NO 67 10 min 0,000 mm 171 W/m -4,6 C 7,3 C 17,7 km/h (3 Bft) 100,00 %
14.04.2021 18:00 7,3 C 7,3 C 8,2 C 41 % 0 cb 1027,8 hPa 0,0 l/m 8,0 km/h (2 Bft) N-NO 22 0 min 0,152 mm 90 W/m -5,1 C 5,8 C 17,7 km/h (3 Bft) 100,00 %
14.04.2021 18:10 6,8 C 6,8 C 7,3 C 41 % 0 cb 1027,9 hPa 0,0 l/m 4,8 km/h (1 Bft) NO 45 0 min 0,000 mm 83 W/m -5,5 C 6,2 C 11,3 km/h (2 Bft) 100,00 %
14.04.2021 18:20 6,5 C 6,5 C 6,8 C 44 % 0 cb 1027,9 hPa 0,0 l/m 3,2 km/h (1 Bft) N-NO 22 0 min 0,000 mm 58 W/m -4,9 C 6,5 C 8,0 km/h (2 Bft) 100,00 %
14.04.2021 18:30 6,2 C 6,2 C 6,5 C 44 % 0 cb 1027,9 hPa 0,0 l/m 4,8 km/h (1 Bft) N-NO 22 0 min 0,000 mm 69 W/m -5,1 C 5,5 C 12,9 km/h (3 Bft) 100,00 %
14.04.2021 18:40 6,1 C 6,1 C 6,2 C 45 % 0 cb 1027,9 hPa 0,0 l/m 3,2 km/h (1 Bft) N-NO 22 0 min 0,000 mm 91 W/m -4,9 C 6,1 C 12,9 km/h (3 Bft) 100,00 %
14.04.2021 18:50 6,1 C 6,1 C 6,1 C 48 % 0 cb 1027,9 hPa 0,0 l/m 4,8 km/h (1 Bft) O-NO 67 0 min 0,000 mm 86 W/m -4,1 C 5,4 C 12,9 km/h (3 Bft) 100,00 %
14.04.2021 19:00 5,9 C 5,9 C 6,1 C 50 % 0 cb 1027,9 hPa 0,0 l/m 8,0 km/h (2 Bft) N 360 0 min 0,051 mm 74 W/m -3,7 C 4,2 C 17,7 km/h (3 Bft) 100,00 %
14.04.2021 19:10 5,7 C 5,7 C 5,9 C 51 % 0 cb 1028,0 hPa 0,0 l/m 6,4 km/h (2 Bft) N 360 0 min 0,000 mm 65 W/m -3,6 C 4,4 C 17,7 km/h (3 Bft) 99,56 %
14.04.2021 19:20 5,3 C 5,3 C 5,7 C 53 % 0 cb 1028,0 hPa 0,0 l/m 8,0 km/h (2 Bft) N 360 0 min 0,000 mm 44 W/m -3,5 C 3,5 C 19,3 km/h (3 Bft) 100,00 %
14.04.2021 19:30 4,7 C 4,7 C 5,3 C 58 % 0 cb 1028,0 hPa 0,0 l/m 8,0 km/h (2 Bft) N-NW 337 0 min 0,000 mm 30 W/m -2,8 C 2,8 C 19,3 km/h (3 Bft) 100,00 %
14.04.2021 19:40 4,3 C 4,3 C 4,7 C 61 % 0 cb 1028,1 hPa 0,0 l/m 8,0 km/h (2 Bft) N-NW 337 0 min 0,000 mm 23 W/m -2,5 C 2,3 C 17,7 km/h (3 Bft) 100,00 %
14.04.2021 19:50 4,0 C 4,0 C 4,3 C 63 % 0 cb 1028,1 hPa 0,0 l/m 6,4 km/h (2 Bft) N-NW 337 0 min 0,000 mm 16 W/m -2,4 C 2,4 C 12,9 km/h (3 Bft) 100,00 %
14.04.2021 20:00 3,8 C 3,8 C 4,0 C 64 % 0 cb 1028,1 hPa 0,0 l/m 8,0 km/h (2 Bft) N-NW 337 0 min 0,051 mm 14 W/m -2,4 C 1,7 C 17,7 km/h (3 Bft) 100,00 %
14.04.2021 20:10 3,6 C 3,6 C 3,8 C 65 % 0 cb 1028,1 hPa 0,0 l/m 4,8 km/h (1 Bft) NW 315 0 min 0,000 mm 11 W/m -2,4 C 2,6 C 12,9 km/h (3 Bft) 99,12 %
14.04.2021 20:20 3,3 C 3,3 C 3,5 C 65 % 0 cb 1028,1 hPa 0,0 l/m 3,2 km/h (1 Bft) N 360 0 min 0,000 mm 7 W/m -2,6 C 3,3 C 11,3 km/h (2 Bft) 100,00 %
14.04.2021 20:30 3,1 C 3,1 C 3,3 C 65 % 0 cb 1028,2 hPa 0,0 l/m 3,2 km/h (1 Bft) N 360 0 min 0,000 mm 0 W/m -2,8 C 3,1 C 9,7 km/h (2 Bft) 100,00 %
14.04.2021 20:40 2,9 C 2,9 C 3,1 C 66 % 0 cb 1028,4 hPa 0,0 l/m 3,2 km/h (1 Bft) N 360 0 min 0,000 mm 0 W/m -2,8 C 2,9 C 6,4 km/h (2 Bft) 100,00 %
14.04.2021 20:50 2,7 C 2,7 C 2,9 C 67 % 0 cb 1028,5 hPa 0,0 l/m 3,2 km/h (1 Bft) N 360 0 min 0,000 mm 0 W/m -2,8 C 2,7 C 9,7 km/h (2 Bft) 100,00 %
14.04.2021 21:00 2,7 C 2,7 C 2,7 C 68 % 0 cb 1028,6 hPa 0,0 l/m 4,8 km/h (1 Bft) N-NW 337 0 min 0,025 mm 0 W/m -2,6 C 1,6 C 14,5 km/h (3 Bft) 100,00 %
14.04.2021 21:10 2,6 C 2,6 C 2,7 C 71 % 0 cb 1028,6 hPa 0,0 l/m 4,8 km/h (1 Bft) N 360 0 min 0,000 mm 0 W/m -2,1 C 1,4 C 14,5 km/h (3 Bft) 100,00 %
14.04.2021 21:20 2,6 C 2,6 C 2,6 C 72 % 0 cb 1028,8 hPa 0,0 l/m 4,8 km/h (1 Bft) N-NW 337 0 min 0,000 mm 0 W/m -1,9 C 1,4 C 12,9 km/h (3 Bft) 100,00 %
14.04.2021 21:30 2,4 C 2,4 C 2,6 C 73 % 0 cb 1028,7 hPa 0,0 l/m 3,2 km/h (1 Bft) N 360 0 min 0,000 mm 0 W/m -1,9 C 2,4 C 9,7 km/h (2 Bft) 100,00 %
14.04.2021 21:40 2,4 C 2,3 C 2,4 C 73 % 0 cb 1028,8 hPa 0,0 l/m 4,8 km/h (1 Bft) N 360 0 min 0,000 mm 0 W/m -1,9 C 1,2 C 16,1 km/h (3 Bft) 100,00 %
14.04.2021 21:50 2,3 C 2,3 C 2,3 C 73 % 0 cb 1028,8 hPa 0,0 l/m 3,2 km/h (1 Bft) N-NW 337 0 min 0,000 mm 0 W/m -2,0 C 2,3 C 11,3 km/h (2 Bft) 100,00 %
14.04.2021 22:00 2,2 C 2,2 C 2,3 C 73 % 0 cb 1028,9 hPa 0,0 l/m 4,8 km/h (1 Bft) N-NW 337 0 min 0,025 mm 0 W/m -2,1 C 1,0 C 16,1 km/h (3 Bft) 99,56 %
14.04.2021 22:10 2,1 C 2,1 C 2,2 C 74 % 0 cb 1028,9 hPa 0,0 l/m 3,2 km/h (1 Bft) N 360 0 min 0,000 mm 0 W/m -2,0 C 2,1 C 11,3 km/h (2 Bft) 100,00 %
14.04.2021 22:20 1,9 C 1,9 C 2,1 C 74 % 0 cb 1028,9 hPa 0,0 l/m 1,6 km/h (1 Bft) N 360 0 min 0,000 mm 0 W/m -2,2 C 1,9 C 8,0 km/h (2 Bft) 100,00 %
14.04.2021 22:30 1,7 C 1,7 C 1,9 C 75 % 0 cb 1028,9 hPa 0,0 l/m 1,6 km/h (1 Bft) N 360 0 min 0,000 mm 0 W/m -2,2 C 1,7 C 6,4 km/h (2 Bft) 100,00 %
14.04.2021 22:40 1,6 C 1,6 C 1,7 C 75 % 0 cb 1028,9 hPa 0,0 l/m 1,6 km/h (1 Bft) N 360 0 min 0,000 mm 0 W/m -2,3 C 1,6 C 8,0 km/h (2 Bft) 100,00 %
14.04.2021 22:50 1,4 C 1,4 C 1,6 C 76 % 0 cb 1029,0 hPa 0,0 l/m 1,6 km/h (1 Bft) N 360 0 min 0,000 mm 0 W/m -2,4 C 1,4 C 8,0 km/h (2 Bft) 100,00 %
14.04.2021 23:00 1,2 C 1,2 C 1,3 C 76 % 0 cb 1028,9 hPa 0,0 l/m 3,2 km/h (1 Bft) N 360 0 min 0,025 mm 0 W/m -2,5 C 1,2 C 8,0 km/h (2 Bft) 100,00 %
14.04.2021 23:10 1,0 C 1,0 C 1,2 C 77 % 0 cb 1028,9 hPa 0,0 l/m 1,6 km/h (1 Bft) N 360 0 min 0,000 mm 0 W/m -2,6 C 1,0 C 6,4 km/h (2 Bft) 100,00 %
14.04.2021 23:20 0,9 C 0,9 C 1,0 C 79 % 0 cb 1028,9 hPa 0,0 l/m 3,2 km/h (1 Bft) N 360 0 min 0,000 mm 0 W/m -2,3 C 0,9 C 6,4 km/h (2 Bft) 100,00 %
14.04.2021 23:30 0,8 C 0,8 C 0,9 C 79 % 0 cb 1028,8 hPa 0,0 l/m 1,6 km/h (1 Bft) N 360 0 min 0,000 mm 0 W/m -2,4 C 0,8 C 6,4 km/h (2 Bft) 100,00 %
14.04.2021 23:40 0,8 C 0,8 C 0,9 C 80 % 0 cb 1028,7 hPa 0,0 l/m 3,2 km/h (1 Bft) N 360 0 min 0,000 mm 0 W/m -2,2 C 0,8 C 11,3 km/h (2 Bft) 100,00 %
14.04.2021 23:50 0,9 C 0,8 C 0,9 C 80 % 0 cb 1028,8 hPa 0,0 l/m 3,2 km/h (1 Bft) N 360 0 min 0,000 mm 0 W/m -2,2 C 0,9 C 12,9 km/h (3 Bft) 100,00 %
_ Min-Zeit 01:20 01:20 01:20 17:30 00:00 17:10 - 00:10 - - - - - 17:30 01:20 01:00 04:50
Minimum _ -1,4 C -1,4 C -1,3 C 35 % 0 cb 1025,6 hPa - 0,0 km/h (0 Bft) - - - - - -6,3 C -1,4 C 0,0 km/h (0 Bft) 93,86 %
_ Max-Zeit 16:10 14:30 16:10 01:20 00:00 00:00 00:00 14:40 - - 08:20 13:00 12:20 10:40 16:00 16:10 00:00
Maximum _ 8,8 C 8,4 C 8,8 C 82 % 0 cb 1031,9 hPa 0,0 l/m 9,7 km/h
N-NW (2 Bft)
- - 10 min 0,305 mm 991 W/m -0,5 C 8,3 C 24,1 km/h
N-NO (4 Bft)
100,00 %
Durchschnitt _ 3,3 C 3,1 C 3,4 C 65 % 0 cb 1029,7 hPa #0,0 l/m 4,3 km/h (1 Bft) N - #9:30 h #2,207 mm 383 W/m -3,1 C 2,7 C 12,2 km/h (2 Bft) 99,92 %
Wetterstation Gdesweiler